Latest Conditions
At L.F.Wade Int. Airport
Recorded at 12:55 pm
Few Clouds
Temp.: 
22°C/72°F
Humidity: 
70%
Wind: 
WNW 10KT
or 12mph
UV Index: 
8
Island Observations
 
Observations
Thursday, April 25, 2019

Observations are in local time and taken at least once an hour, or upon the start and end of specified events such as showers and thunderstorms.

Time Sky / Weather Wind Speed/Gusts Temp. R.H. Pressure
     knots (mph)  °C (°F)  %  mb / "Hg
 12:55 Few Clouds  WNW 10/0 (12/0) 22(72) 70 1017 / 30.04
 11:55 Few Clouds  NW 8/0 (9/0) 22(72) 71 1018 / 30.05
 10:55 Few Clouds  NW 8/0 (9/0) 21(71) 68 1018 / 30.05
 09:55 Few Clouds  NW 8/0 (9/0) 22(71) 72 1017 / 30.04
 08:55 Few Clouds  NW 8/0 (9/0) 21(70) 72 1017 / 30.02
 07:55 Few Clouds  NW 9/0 (10/0) 20(68) 75 1017 / 30.02
 06:55 Few Clouds  WNW 6/0 (7/0) 19(67) 76 1016 / 29.99
 05:55 Few Clouds  WNW 7/0 (8/0) 19(67) 74 1015 / 29.98
 04:55 Few Clouds  WNW 6/0 (7/0) 19(67) 76 1015 / 29.97
 03:55 Partly Cloudy  NW 5/0 (6/0) 19(67) 77 1015 / 29.98
 02:55 Partly Cloudy  NW 6/0 (7/0) 20(67) 75 1016 / 29.99
 01:55 Partly Cloudy  NW 5/0 (6/0) 20(67) 76 1016 / 30.00
 00:55 Partly Cloudy  NW 5/0 (6/0) 20(67) 77 1016 / 30.01
 23:55 Partly Cloudy  NW 5/0 (6/0) 20(67) 76 1016 / 30.01
 22:55 Partly Cloudy  NNW 4/0 (5/0) 20(67) 82 1016 / 30.01
 21:55 Partly Cloudy  N 3/0 (3/0) 20(67) 85 1016 / 30.01
 20:55 Partly Cloudy  N 5/0 (6/0) 20(67) 83 1016 / 29.99
 19:55 Partly Cloudy  NNW 5/0 (6/0) 20(68) 82 1016 / 29.99
 18:55 Partly Cloudy  NW 5/0 (6/0) 21(69) 82 1015 / 29.97
 17:55 Few Clouds  NNW 4/0 (5/0) 22(71) 78 1015 / 29.96
 16:55 Few Clouds  N 4/0 (5/0) 21(71) 79 1015 / 29.96
 15:55 Few Clouds  NNW 5/0 (6/0) 21(70) 82 1015 / 29.97
 15:34 Mostly Cloudy Showers N 6/0 (7/0) 21(69) 85 1015 / 29.98
 15:14 Mostly Cloudy Showers N 7/0 (8/0) 21(69) 86 1016 / 29.99
 14:55 Mostly Cloudy Showers NNW 8/0 (9/0) 21(70) 83 1016 / 29.99
 13:55 Mostly Cloudy  N 5/0 (6/0) 21(70) 83 1016 / 29.99
 13:19 Mostly Cloudy  NNW 6/0 (7/0) 21(70) 86 1016 / 30.00
 12:55 Mostly Cloudy Showers NNW 5/0 (6/0) 20(69) 88 1016 / 30.01
 12:44 Overcast Showers NNW 5/0 (6/0) 20(68) 87 1016 / 30.01
 12:05 Mostly Cloudy Showers NNW 4/0 (5/0) 20(68) 93 1016 / 30.01
 11:55 Mostly Cloudy Showers WNW 7/0 (8/0) 20(68) 93 1016 / 30.01
 11:45 Mostly Cloudy Showers NW 6/0 (7/0) 20(68) 90 1016 / 30.01
 11:29 Mostly Cloudy Showers WNW 7/0 (8/0) 22(71) 80 1016 / 30.00
 10:55 Mostly Cloudy Showers SSE 3/0 (3/0) 22(71) 73 1016 / 30.00
 09:55 Mostly Cloudy Showers SE 4/0 (5/0) 22(71) 74 1016 / 30.00
 08:55 Mostly Cloudy  SE 4/0 (5/0) 22(71) 76 1016 / 29.99
 07:55 Mostly Cloudy  S 4/0 (5/0) 20(69) 85 1015 / 29.98
 06:55 Mostly Cloudy  S 4/0 (5/0) 20(68) 88 1015 / 29.97
 05:55 Mostly Cloudy  VRB 2/0 (2/0) 19(67) 92 1014 / 29.95
 04:55 Mostly Cloudy  Calm 19(66) 93 1014 / 29.95
 03:55 Mostly Cloudy  Calm 18(65) 93 1015 / 29.96
 02:55 Mostly Cloudy  Calm 19(66) 92 1015 / 29.97
 01:55 Mostly Cloudy  Calm 20(67) 90 1015 / 29.98
 00:55 Mostly Cloudy  SSE 2/0 (2/0) 20(68) 86 1016 / 29.99
 23:55 Partly Cloudy  S 2/0 (2/0) 20(68) 86 1016 / 30.00
 22:55 Mostly Cloudy  Calm 20(68) 86 1016 / 30.01
 21:55 Partly Cloudy  S 3/0 (3/0) 20(69) 83 1016 / 30.01
 20:55 Mostly Cloudy  VRB 2/0 (2/0) 21(69) 83 1016 / 30.01
 19:55 Mostly Cloudy  SSE 3/0 (3/0) 20(69) 81 1016 / 30.00
 18:55 Mostly Cloudy  SSE 3/0 (3/0) 21(70) 78 1016 / 29.99
 17:55 Mostly Cloudy  SSE 4/0 (5/0) 21(70) 78 1016 / 30.00
 16:55 Mostly Cloudy Showers SSE 5/0 (6/0) 22(71) 76 1016 / 30.01
 15:55 Mostly Cloudy  ESE 5/0 (6/0) 22(72) 76 1017 / 30.03
 14:55 Mostly Cloudy  SE 6/0 (7/0) 22(71) 80 1018 / 30.05
 13:55 Mostly Cloudy  SE 7/0 (8/0) 22(72) 78 1018 / 30.05
 12:55 Mostly Cloudy  ESE 8/0 (9/0) 23(73) 78 1018 / 30.06
 11:55 Mostly Cloudy  ESE 8/0 (9/0) 23(73) 76 1018 / 30.07
 10:55 Mostly Cloudy  ESE 6/0 (7/0) 22(72) 76 1019 / 30.08
 09:55 Mostly Cloudy  ESE 5/0 (6/0) 21(71) 83 1018 / 30.07
 08:55 Mostly Cloudy  ESE 5/0 (6/0) 21(70) 81 1018 / 30.07
 07:55 Mostly Cloudy  ESE 5/0 (6/0) 20(69) 83 1018 / 30.07
 06:55 Mostly Cloudy  E 4/0 (5/0) 19(66) 90 1018 / 30.06
 05:55 Partly Cloudy  E 3/0 (3/0) 19(67) 90 1018 / 30.05
 04:55 Mostly Cloudy  ENE 3/0 (3/0) 19(66) 89 1018 / 30.06
 03:55 Few Clouds  E 5/0 (6/0) 19(66) 86 1018 / 30.07
 02:55 Few Clouds  SE 6/0 (7/0) 20(68) 83 1019 / 30.08
 01:55 Few Clouds  ESE 6/0 (7/0) 20(68) 84 1019 / 30.10
 00:55 Few Clouds  ESE 8/0 (9/0) 20(68) 80 1020 / 30.12
 23:55 Few Clouds  ESE 8/0 (9/0) 20(69) 80 1021 / 30.14
 22:55 Few Clouds  SE 9/0 (10/0) 20(69) 76 1021 / 30.15
 21:55 Few Clouds  ESE 8/0 (9/0) 20(69) 76 1021 / 30.15
 20:55 Partly Cloudy  SE 7/0 (8/0) 21(69) 77 1021 / 30.15
 19:55 Partly Cloudy  SE 7/0 (8/0) 21(69) 75 1021 / 30.14
 18:55 Partly Cloudy  SSE 7/0 (8/0) 21(71) 73 1021 / 30.14
 17:55 Partly Cloudy  SSE 8/0 (9/0) 22(71) 71 1021 / 30.14
 16:55 Partly Cloudy  SE 11/0 (13/0) 22(72) 68 1021 / 30.14
 15:55 Partly Cloudy  SE 12/0 (14/0) 23(73) 67 1021 / 30.14
 14:55 Partly Cloudy  SE 12/0 (14/0) 23(74) 62 1022 / 30.17
 13:55 Mostly Cloudy  SE 12/0 (14/0) 23(73) 68 1022 / 30.19
 12:55 Mostly Cloudy  SE 12/0 (14/0) 23(73) 69 1023 / 30.21
 11:55 Mostly Cloudy  SE 11/0 (13/0) 22(72) 72 1023 / 30.22
 10:55 Mostly Cloudy  SE 11/0 (13/0) 22(72) 72 1024 / 30.24
 09:55 Mostly Cloudy  SE 10/0 (12/0) 22(71) 72 1024 / 30.24
 08:55 Mostly Cloudy  SE 11/0 (13/0) 22(71) 72 1024 / 30.25
 07:55 Mostly Cloudy  SE 10/0 (12/0) 21(70) 67 1024 / 30.25
 06:55 Mostly Cloudy  SE 14/0 (16/0) 21(69) 68 1024 / 30.23
 05:55 Mostly Cloudy  ESE 15/0 (17/0) 20(69) 72 1023 / 30.22
 04:55 Mostly Cloudy  SE 15/0 (17/0) 21(69) 74 1024 / 30.23
 03:55 Mostly Cloudy  SE 15/0 (17/0) 21(69) 72 1024 / 30.24
 02:55 Mostly Cloudy  SE 14/0 (16/0) 21(69) 75 1025 / 30.26
 01:55 Mostly Cloudy  SE 13/0 (15/0) 21(69) 82 1026 / 30.30
 00:55 Mostly Cloudy  SE 11/0 (13/0) 21(69) 77 1027 / 30.32
 23:55 Mostly Cloudy  SE 15/0 (17/0) 21(70) 77 1027 / 30.32
 22:55 Mostly Cloudy  SE 13/0 (15/0) 21(69) 80 1027 / 30.34
 21:55 Mostly Cloudy  SE 13/0 (15/0) 21(70) 81 1027 / 30.34
 20:55 Mostly Cloudy  SE 16/0 (18/0) 21(70) 79 1027 / 30.33
 19:55 Partly Cloudy  SE 15/0 (17/0) 21(70) 80 1026 / 30.31
 18:55 Partly Cloudy  SE 16/0 (18/0) 21(70) 79 1026 / 30.30
 17:55 Partly Cloudy  SE 16/0 (18/0) 22(72) 75 1026 / 30.30
 16:55 Partly Cloudy  SE 16/0 (18/0) 22(72) 73 1026 / 30.30
Island AWOS